createdAt,value
2022-09-14T00:01:51.579Z,17.65
2022-09-14T00:04:18.902Z,14.40
2022-09-14T00:06:46.117Z,19.10
2022-09-14T00:09:13.440Z,12.82
2022-09-14T00:11:41.374Z,20.00
2022-09-14T00:14:08.670Z,18.45
2022-09-14T00:16:36.014Z,14.85
2022-09-14T00:19:05.982Z,14.38
2022-09-14T00:21:33.233Z,24.25
2022-09-14T00:24:00.395Z,13.18
2022-09-14T00:26:27.588Z,20.20
2022-09-14T00:28:54.901Z,18.95
2022-09-14T00:31:22.185Z,16.98
2022-09-14T00:33:49.476Z,13.02
2022-09-14T00:36:16.738Z,19.83
2022-09-14T00:38:43.951Z,19.20
2022-09-14T00:41:11.162Z,26.65
2022-09-14T00:43:38.335Z,20.23
2022-09-14T00:46:05.573Z,21.70
2022-09-14T00:48:32.800Z,16.08
2022-09-14T00:51:00.027Z,23.73
2022-09-14T00:53:27.244Z,12.40
2022-09-14T00:55:54.428Z,16.95
2022-09-14T00:58:21.743Z,18.20
2022-09-14T01:00:49.048Z,13.82
2022-09-14T01:03:16.322Z,14.98
2022-09-14T01:05:43.561Z,16.55
2022-09-14T01:08:10.717Z,11.65
2022-09-14T01:10:37.933Z,16.80
2022-09-14T01:13:05.374Z,15.63
2022-09-14T01:15:32.606Z,15.25
2022-09-14T01:17:59.795Z,12.30
2022-09-14T01:20:27.107Z,8.90
2022-09-14T01:22:54.286Z,10.65
2022-09-14T01:25:21.540Z,15.38
2022-09-14T01:27:49.061Z,9.20
2022-09-14T01:30:16.285Z,13.10
2022-09-14T01:32:43.462Z,13.93
2022-09-14T01:35:15.216Z,18.17
2022-09-14T01:37:43.122Z,14.35
2022-09-14T01:40:10.353Z,13.85
2022-09-14T01:42:37.596Z,11.52
2022-09-14T01:45:04.728Z,16.33
2022-09-14T01:47:31.992Z,8.82
2022-09-14T01:49:59.216Z,6.10
2022-09-14T01:52:26.609Z,14.65
2022-09-14T01:54:53.800Z,17.77
2022-09-14T01:57:21.120Z,12.68
2022-09-14T01:59:48.645Z,15.05
2022-09-14T02:02:15.982Z,21.20
2022-09-14T02:04:43.539Z,12.27
2022-09-14T02:07:10.842Z,17.30
2022-09-14T02:09:37.989Z,12.23
2022-09-14T02:12:05.347Z,20.02
2022-09-14T02:14:32.534Z,11.95
2022-09-14T02:16:59.866Z,13.25
2022-09-14T02:19:27.042Z,11.73
2022-09-14T02:21:54.419Z,15.13
2022-09-14T02:24:21.652Z,6.18
2022-09-14T02:26:48.889Z,11.65
2022-09-14T02:29:16.096Z,14.40
2022-09-14T02:31:43.446Z,11.68
2022-09-14T02:34:10.795Z,6.65
2022-09-14T02:36:38.070Z,9.85
2022-09-14T02:39:05.240Z,7.10
2022-09-14T02:41:33.041Z,7.57
2022-09-14T02:44:00.206Z,10.50
2022-09-14T02:46:27.462Z,7.97
2022-09-14T02:48:55.108Z,8.60
2022-09-14T02:51:22.346Z,16.65
2022-09-14T02:53:49.548Z,15.15
2022-09-14T02:56:16.829Z,18.80
2022-09-14T02:58:44.086Z,20.77
2022-09-14T03:01:11.477Z,17.08
2022-09-14T03:03:38.790Z,18.52
2022-09-14T03:06:06.007Z,20.63
2022-09-14T03:08:33.180Z,15.45
2022-09-14T03:11:00.392Z,26.15
2022-09-14T03:13:27.570Z,24.02
2022-09-14T03:15:54.913Z,16.70
2022-09-14T03:18:22.194Z,28.50
2022-09-14T03:20:49.607Z,21.52
2022-09-14T03:23:16.841Z,20.05
2022-09-14T03:25:44.142Z,26.27
2022-09-14T03:28:11.313Z,18.80
2022-09-14T03:30:38.527Z,14.70
2022-09-14T03:33:05.768Z,22.30
2022-09-14T03:35:33.029Z,23.00
2022-09-14T03:38:00.963Z,27.05
2022-09-14T03:40:28.240Z,28.92
2022-09-14T03:42:55.544Z,27.17
2022-09-14T03:45:22.731Z,23.83
2022-09-14T03:47:49.982Z,29.27
2022-09-14T03:50:17.188Z,30.10
2022-09-14T03:52:44.398Z,25.05
2022-09-14T03:55:11.735Z,30.48
2022-09-14T03:57:38.951Z,27.50
2022-09-14T04:00:06.181Z,28.38
2022-09-14T04:02:38.389Z,22.95
2022-09-14T04:05:05.666Z,29.95
2022-09-14T04:07:32.903Z,20.02
2022-09-14T04:10:00.197Z,29.33
2022-09-14T04:12:27.464Z,24.17
2022-09-14T04:14:54.736Z,22.60
2022-09-14T04:17:22.414Z,26.77
2022-09-14T04:19:49.957Z,29.92
2022-09-14T04:22:17.155Z,26.77
2022-09-14T04:24:44.663Z,25.00
2022-09-14T04:27:12.134Z,19.02
2022-09-14T04:29:39.465Z,28.98
2022-09-14T04:32:07.150Z,31.80
2022-09-14T04:34:34.369Z,34.00
2022-09-14T04:37:01.608Z,23.67
2022-09-14T04:39:28.810Z,18.70
2022-09-14T04:41:56.088Z,20.30
2022-09-14T04:44:23.268Z,24.77
2022-09-14T04:46:50.468Z,28.70
2022-09-14T04:49:18.997Z,29.23
2022-09-14T04:51:46.311Z,30.80
2022-09-14T04:54:13.589Z,27.10
2022-09-14T04:56:40.737Z,30.27
2022-09-14T04:59:08.085Z,30.65
2022-09-14T05:01:35.577Z,26.33
2022-09-14T05:04:02.883Z,28.75
2022-09-14T05:06:30.026Z,34.25
2022-09-14T05:08:57.271Z,30.92
2022-09-14T05:11:24.498Z,30.92
2022-09-14T05:13:52.031Z,26.23
2022-09-14T05:16:19.323Z,28.63
2022-09-14T05:18:46.691Z,50.60
2022-09-14T05:21:13.853Z,31.80
2022-09-14T05:23:41.141Z,31.83
2022-09-14T05:26:08.375Z,34.10
2022-09-14T05:28:35.703Z,36.58
2022-09-14T05:31:02.996Z,35.10
2022-09-14T05:33:30.345Z,29.98
2022-09-14T05:35:57.531Z,36.63
2022-09-14T05:38:24.764Z,37.63
2022-09-14T05:40:52.000Z,33.55
2022-09-14T05:43:20.173Z,32.30
2022-09-14T05:45:47.406Z,26.92
2022-09-14T05:48:14.610Z,29.80
2022-09-14T05:50:41.846Z,30.70
2022-09-14T05:53:09.144Z,22.38
2022-09-14T05:55:36.341Z,24.52
2022-09-14T05:58:04.542Z,23.92
2022-09-14T06:00:31.741Z,26.85
2022-09-14T06:02:58.966Z,29.90
2022-09-14T06:05:26.282Z,24.65
2022-09-14T06:07:53.641Z,29.02
2022-09-14T06:10:20.841Z,23.63
2022-09-14T06:12:51.169Z,24.27
2022-09-14T06:15:20.825Z,20.80
2022-09-14T06:17:47.977Z,26.70
2022-09-14T06:20:15.179Z,22.10
2022-09-14T06:22:42.437Z,21.02
2022-09-14T06:25:11.482Z,19.70
2022-09-14T06:27:38.652Z,31.35
2022-09-14T06:30:05.911Z,17.15
2022-09-14T06:32:33.107Z,19.65
2022-09-14T06:35:00.324Z,24.20
2022-09-14T06:37:27.503Z,24.17
2022-09-14T06:39:54.814Z,19.80
2022-09-14T06:42:22.020Z,20.25
2022-09-14T06:44:52.368Z,17.95
2022-09-14T06:47:19.585Z,12.82
2022-09-14T06:49:46.809Z,15.27
2022-09-14T06:52:14.150Z,16.98
2022-09-14T06:54:41.309Z,21.77
2022-09-14T06:57:08.519Z,15.55
2022-09-14T06:59:35.688Z,21.65
2022-09-14T07:02:02.936Z,26.13
2022-09-14T07:04:30.211Z,22.25
2022-09-14T07:06:57.401Z,18.25
2022-09-14T07:09:25.262Z,20.75
2022-09-14T07:11:52.588Z,12.23
2022-09-14T07:14:20.224Z,16.35
2022-09-14T07:16:47.500Z,17.00
2022-09-14T07:19:14.762Z,13.45
2022-09-14T07:21:42.207Z,17.75
2022-09-14T07:24:09.453Z,15.20
2022-09-14T07:26:39.569Z,16.08
2022-09-14T07:29:06.869Z,13.55
2022-09-14T07:31:34.055Z,16.63
2022-09-14T07:34:01.993Z,14.95
2022-09-14T07:36:32.725Z,11.85
2022-09-14T07:39:02.022Z,17.30
2022-09-14T07:41:29.363Z,13.93
2022-09-14T07:43:57.230Z,13.45
2022-09-14T07:46:24.521Z,18.88
2022-09-14T07:48:51.865Z,13.85
2022-09-14T07:51:19.144Z,14.77
2022-09-14T07:53:46.502Z,11.70
2022-09-14T07:56:13.657Z,10.18
2022-09-14T07:58:42.108Z,15.32
2022-09-14T08:01:09.442Z,23.67
2022-09-14T08:03:36.672Z,15.23
2022-09-14T08:06:03.807Z,16.02
2022-09-14T08:08:30.994Z,12.77
2022-09-14T08:10:58.247Z,12.90
2022-09-14T08:13:25.510Z,10.95
2022-09-14T08:15:52.655Z,17.27
2022-09-14T08:18:19.794Z,19.63
2022-09-14T08:20:46.930Z,11.82
2022-09-14T08:23:14.110Z,11.38
2022-09-14T08:25:41.230Z,14.88
2022-09-14T08:28:08.392Z,10.95
2022-09-14T08:30:35.550Z,17.95
2022-09-14T08:33:02.689Z,10.13
2022-09-14T08:35:56.101Z,12.82
2022-09-14T08:38:17.103Z,14.95
2022-09-14T08:40:45.346Z,14.48
2022-09-14T08:43:12.532Z,20.83
2022-09-14T08:45:39.661Z,15.88
2022-09-14T08:48:06.900Z,15.45
2022-09-14T08:50:38.624Z,12.88
2022-09-14T08:53:06.037Z,15.88
2022-09-14T08:55:33.305Z,9.55
2022-09-14T08:58:01.018Z,12.85
2022-09-14T09:00:28.203Z,18.02
2022-09-14T09:02:55.346Z,11.23
2022-09-14T09:05:22.574Z,14.88
2022-09-14T09:07:50.836Z,10.07
2022-09-14T09:10:18.010Z,8.18
2022-09-14T09:12:45.134Z,15.63
2022-09-14T09:15:12.310Z,10.35
2022-09-14T09:17:39.494Z,7.45
2022-09-14T09:20:07.077Z,8.82
2022-09-14T09:22:34.475Z,10.05
2022-09-14T09:25:03.168Z,11.77
2022-09-14T09:27:30.327Z,8.95
2022-09-14T09:29:57.542Z,11.07
2022-09-14T09:32:28.174Z,14.57
2022-09-14T09:34:55.370Z,12.85
2022-09-14T09:37:35.008Z,11.88
2022-09-14T09:40:02.318Z,9.38
2022-09-14T09:42:29.520Z,13.88
2022-09-14T09:45:01.282Z,6.60
2022-09-14T09:47:30.455Z,13.50
2022-09-14T09:49:57.686Z,13.18
2022-09-14T09:52:24.889Z,15.10
2022-09-14T09:54:52.113Z,10.68
2022-09-14T09:57:19.398Z,13.55
2022-09-14T09:59:46.917Z,13.55
2022-09-14T10:02:14.225Z,17.33
2022-09-14T10:04:41.530Z,5.90
2022-09-14T10:07:08.772Z,13.93
2022-09-14T10:09:36.611Z,15.35
2022-09-14T10:12:03.810Z,9.88
2022-09-14T10:14:34.137Z,12.45
2022-09-14T10:17:01.366Z,6.97
2022-09-14T10:19:30.679Z,12.95
2022-09-14T10:21:59.104Z,8.32
2022-09-14T10:24:26.444Z,9.95
2022-09-14T10:26:53.825Z,14.85
2022-09-14T10:29:21.247Z,9.80
2022-09-14T10:31:49.183Z,10.45
2022-09-14T10:34:17.377Z,21.80
2022-09-14T10:36:44.640Z,10.27
2022-09-14T10:39:12.915Z,10.02
2022-09-14T10:41:40.391Z,17.25
2022-09-14T10:44:07.736Z,12.48
2022-09-14T10:46:35.035Z,8.73
2022-09-14T10:49:02.394Z,11.10
2022-09-14T10:51:29.809Z,8.75
2022-09-14T10:53:57.066Z,8.73
2022-09-14T10:56:24.289Z,8.98
2022-09-14T10:58:51.631Z,7.70
2022-09-14T11:01:19.059Z,5.82
2022-09-14T11:03:46.377Z,9.45
2022-09-14T11:06:13.680Z,6.50
2022-09-14T11:08:40.877Z,6.53
2022-09-14T11:11:11.291Z,12.90
2022-09-14T11:13:38.882Z,10.63
2022-09-14T11:16:06.183Z,6.20
2022-09-14T11:18:33.464Z,12.32
2022-09-14T11:21:00.656Z,16.73
2022-09-14T11:23:27.885Z,7.75
2022-09-14T11:25:55.121Z,10.38
2022-09-14T11:28:22.394Z,13.93
2022-09-14T11:30:49.595Z,12.23
2022-09-14T11:33:16.916Z,14.57
2022-09-14T11:35:45.157Z,14.02
2022-09-14T11:38:12.518Z,8.73
2022-09-14T11:40:39.796Z,13.73
2022-09-14T11:43:07.072Z,8.50
2022-09-14T11:45:34.219Z,12.05
2022-09-14T11:48:01.535Z,9.00
2022-09-14T11:50:28.689Z,16.60
2022-09-14T11:52:56.007Z,6.45
2022-09-14T11:55:23.380Z,11.60
2022-09-14T11:57:50.962Z,9.43
2022-09-14T12:00:18.209Z,12.65
2022-09-14T12:02:45.557Z,10.32
2022-09-14T12:05:13.001Z,10.98
2022-09-14T12:07:43.636Z,13.82
2022-09-14T12:10:11.558Z,5.90
2022-09-14T12:12:38.974Z,11.35
2022-09-14T12:15:06.176Z,10.82
2022-09-14T12:17:41.384Z,4.40
2022-09-14T12:20:08.676Z,9.50
2022-09-14T12:22:35.862Z,5.88
2022-09-14T12:25:03.091Z,13.38
2022-09-14T12:27:30.294Z,7.30
2022-09-14T12:29:57.556Z,6.72
2022-09-14T12:32:25.056Z,4.97
2022-09-14T12:34:52.308Z,4.40
2022-09-14T12:37:19.470Z,6.40
2022-09-14T12:39:46.719Z,5.47
2022-09-14T12:42:13.949Z,7.97
2022-09-14T12:44:41.218Z,5.03
2022-09-14T12:47:08.398Z,6.75
2022-09-14T12:49:35.739Z,4.72
2022-09-14T12:52:03.531Z,10.93
2022-09-14T12:54:30.758Z,6.03
2022-09-14T12:56:58.007Z,11.75
2022-09-14T12:59:27.605Z,10.25
2022-09-14T13:01:54.976Z,7.35
2022-09-14T13:04:22.321Z,9.35
2022-09-14T13:06:49.565Z,5.93
2022-09-14T13:09:16.860Z,6.70
2022-09-14T13:11:44.089Z,6.25
2022-09-14T13:14:11.324Z,4.88
2022-09-14T13:16:38.553Z,6.50
2022-09-14T13:19:09.093Z,5.03
2022-09-14T13:21:39.786Z,10.45
2022-09-14T13:24:07.056Z,6.90
2022-09-14T13:26:34.308Z,6.93
2022-09-14T13:29:01.467Z,8.05
2022-09-14T13:31:29.221Z,2.53
2022-09-14T13:33:56.648Z,11.77
2022-09-14T13:36:23.877Z,4.55
2022-09-14T13:38:51.191Z,5.28
2022-09-14T13:41:18.557Z,10.13
2022-09-14T13:43:47.355Z,15.68
2022-09-14T13:46:19.681Z,8.13
2022-09-14T13:48:47.599Z,5.97
2022-09-14T13:51:14.890Z,6.78
2022-09-14T13:53:42.533Z,4.40
2022-09-14T13:56:09.753Z,9.60
2022-09-14T13:58:37.009Z,8.13
2022-09-14T14:01:04.585Z,10.05
2022-09-14T14:03:31.974Z,8.20
2022-09-14T14:05:59.301Z,4.22
2022-09-14T14:08:26.613Z,6.60
2022-09-14T14:10:54.169Z,7.72
2022-09-14T14:13:21.412Z,32.72
2022-09-14T14:15:48.616Z,32.70
2022-09-14T14:18:15.826Z,12.52
2022-09-14T14:20:43.077Z,6.57
2022-09-14T14:23:13.461Z,7.53
2022-09-14T14:25:45.765Z,5.10
2022-09-14T14:28:13.423Z,8.90
2022-09-14T14:30:40.647Z,7.28
2022-09-14T14:33:08.547Z,4.60
2022-09-14T14:35:35.790Z,11.00
2022-09-14T14:38:03.063Z,8.52
2022-09-14T14:40:30.955Z,3.80
2022-09-14T14:42:58.407Z,9.55
2022-09-14T14:45:33.096Z,8.63
2022-09-14T14:48:02.722Z,6.30
2022-09-14T14:50:29.894Z,6.47
2022-09-14T14:52:57.170Z,9.15
2022-09-14T14:55:24.449Z,8.73
2022-09-14T14:57:51.673Z,6.60
2022-09-14T15:00:18.886Z,5.30
2022-09-14T15:02:46.158Z,7.28
2022-09-14T15:05:13.384Z,7.40
2022-09-14T15:07:40.609Z,6.65
2022-09-14T15:10:07.790Z,6.78
2022-09-14T15:12:35.615Z,13.82
2022-09-14T15:15:02.905Z,5.22
2022-09-14T15:17:30.092Z,2.75
2022-09-14T15:19:57.258Z,6.72
2022-09-14T15:22:25.174Z,4.05
2022-09-14T15:24:52.494Z,3.42
2022-09-14T15:27:19.700Z,5.60
2022-09-14T15:29:46.877Z,16.85
2022-09-14T15:32:14.136Z,6.20
2022-09-14T15:34:42.437Z,11.15
2022-09-14T15:37:09.749Z,14.32
2022-09-14T15:39:36.945Z,9.90
2022-09-14T15:42:04.135Z,6.00
2022-09-14T15:44:32.926Z,8.80
2022-09-14T15:47:01.285Z,8.23
2022-09-14T15:49:28.548Z,3.63
2022-09-14T15:51:55.827Z,3.95
2022-09-14T15:54:26.256Z,5.43
2022-09-14T15:56:53.894Z,8.77
2022-09-14T15:59:21.157Z,7.63
2022-09-14T16:01:48.496Z,5.28
2022-09-14T16:04:16.072Z,8.77
2022-09-14T16:06:43.398Z,4.53
2022-09-14T16:09:10.648Z,7.55
2022-09-14T16:11:37.973Z,7.15
2022-09-14T16:14:08.213Z,5.30
2022-09-14T16:16:35.609Z,7.05
2022-09-14T16:19:02.958Z,8.38
2022-09-14T16:21:30.167Z,5.43
2022-09-14T16:23:57.801Z,7.65
2022-09-14T16:26:24.964Z,4.25
2022-09-14T16:28:52.196Z,14.23
2022-09-14T16:31:19.451Z,8.07
2022-09-14T16:33:46.670Z,7.93
2022-09-14T16:36:14.017Z,8.50
2022-09-14T16:38:41.153Z,3.72
2022-09-14T16:41:08.350Z,2.83
2022-09-14T16:43:35.580Z,4.75
2022-09-14T16:46:02.935Z,6.18
2022-09-14T16:48:30.215Z,5.72
2022-09-14T16:50:57.591Z,9.23
2022-09-14T16:53:25.102Z,6.05
2022-09-14T16:55:52.314Z,3.10
2022-09-14T16:58:19.496Z,9.48
2022-09-14T17:00:46.769Z,5.82
2022-09-14T17:03:13.950Z,3.58
2022-09-14T17:05:41.230Z,8.38
2022-09-14T17:08:08.521Z,6.70
2022-09-14T17:10:36.156Z,10.15
2022-09-14T17:13:03.343Z,10.10
2022-09-14T17:15:30.850Z,4.78
2022-09-14T17:17:58.031Z,5.18
2022-09-14T17:20:25.345Z,3.08
2022-09-14T17:22:52.617Z,4.55
2022-09-14T17:25:20.170Z,4.93
2022-09-14T17:27:47.406Z,3.90
2022-09-14T17:30:14.646Z,4.53
2022-09-14T17:32:41.843Z,2.92
2022-09-14T17:35:09.297Z,4.80
2022-09-14T17:37:36.469Z,5.85
2022-09-14T17:40:03.805Z,4.82
2022-09-14T17:42:31.107Z,5.25
2022-09-14T17:44:58.365Z,4.13
2022-09-14T17:47:26.448Z,3.20
2022-09-14T17:49:53.762Z,4.55
2022-09-14T17:52:20.962Z,9.10
2022-09-14T17:54:48.209Z,6.43
2022-09-14T17:57:15.453Z,7.78
2022-09-14T17:59:42.801Z,2.85
2022-09-14T18:02:09.991Z,3.13
2022-09-14T18:04:37.276Z,7.05
2022-09-14T18:07:04.528Z,10.63
2022-09-14T18:09:31.868Z,4.60
2022-09-14T18:11:59.062Z,9.50
2022-09-14T18:14:26.271Z,10.65
2022-09-14T18:16:53.445Z,6.20
2022-09-14T18:19:20.708Z,6.10
2022-09-14T18:21:52.165Z,8.35
2022-09-14T18:24:19.790Z,4.13
2022-09-14T18:26:48.691Z,4.57
2022-09-14T18:29:15.987Z,5.40
2022-09-14T18:31:43.632Z,4.95
2022-09-14T18:34:10.960Z,9.10
2022-09-14T18:36:38.200Z,6.90
2022-09-14T18:39:05.573Z,7.72
2022-09-14T18:41:34.155Z,5.60
2022-09-14T18:44:01.770Z,9.05
2022-09-14T18:46:29.036Z,7.10
2022-09-14T18:48:56.800Z,8.77
2022-09-14T18:51:24.007Z,6.07
2022-09-14T18:53:51.250Z,8.93
2022-09-14T18:56:19.146Z,12.93
2022-09-14T18:58:46.444Z,7.50
2022-09-14T19:01:13.715Z,3.60
2022-09-14T19:03:41.009Z,12.80
2022-09-14T19:06:08.326Z,10.68
2022-09-14T19:08:35.563Z,9.13
2022-09-14T19:11:02.890Z,7.90
2022-09-14T19:13:30.053Z,7.18
2022-09-14T19:15:57.320Z,6.90
2022-09-14T19:18:24.575Z,6.80
2022-09-14T19:21:05.844Z,6.40
2022-09-14T19:23:33.967Z,9.63
2022-09-14T19:26:01.122Z,9.82
2022-09-14T19:28:28.384Z,13.32
2022-09-14T19:30:55.734Z,14.85
2022-09-14T19:33:22.998Z,12.30
2022-09-14T19:35:50.184Z,14.18
2022-09-14T19:38:17.407Z,9.23
2022-09-14T19:40:44.569Z,7.97
2022-09-14T19:43:11.902Z,14.10
2022-09-14T19:45:39.167Z,10.95
2022-09-14T19:48:06.521Z,7.18
2022-09-14T19:50:33.789Z,13.95
2022-09-14T19:53:04.478Z,8.27
2022-09-14T19:55:32.173Z,9.18
2022-09-14T19:57:59.382Z,11.20
2022-09-14T20:00:26.681Z,15.60
2022-09-14T20:02:53.900Z,10.45
2022-09-14T20:05:21.261Z,15.90
2022-09-14T20:07:49.541Z,12.90
2022-09-14T20:10:18.278Z,11.43
2022-09-14T20:12:46.649Z,12.45
2022-09-14T20:15:14.037Z,10.18
2022-09-14T20:17:41.197Z,13.90
2022-09-14T20:20:08.590Z,12.80
2022-09-14T20:22:35.775Z,12.43
2022-09-14T20:25:03.058Z,9.57
2022-09-14T20:27:30.242Z,11.30
2022-09-14T20:29:57.522Z,13.85
2022-09-14T20:32:25.185Z,12.48
2022-09-14T20:34:52.417Z,10.32
2022-09-14T20:37:19.633Z,19.30
2022-09-14T20:39:46.891Z,12.13
2022-09-14T20:42:14.093Z,11.35
2022-09-14T20:44:41.411Z,14.07
2022-09-14T20:47:08.564Z,14.20
2022-09-14T20:49:36.127Z,21.75
2022-09-14T20:52:03.619Z,12.35
2022-09-14T20:54:30.808Z,13.00
2022-09-14T20:57:03.537Z,14.70
2022-09-14T20:59:31.777Z,18.23
2022-09-14T21:02:01.224Z,13.77
2022-09-14T21:04:31.943Z,20.10
2022-09-14T21:06:59.234Z,14.50
2022-09-14T21:09:26.538Z,16.42
2022-09-14T21:11:53.709Z,19.75
2022-09-14T21:14:20.934Z,17.45
2022-09-14T21:16:48.464Z,19.02
2022-09-14T21:19:18.649Z,20.73
2022-09-14T21:21:46.058Z,15.80
2022-09-14T21:24:13.586Z,15.80
2022-09-14T21:26:42.839Z,17.98
2022-09-14T21:29:10.367Z,23.63
2022-09-14T21:31:37.697Z,18.63
2022-09-14T21:34:05.010Z,23.25
2022-09-14T21:36:34.497Z,22.10
2022-09-14T21:39:01.772Z,22.23
2022-09-14T21:41:29.095Z,20.60
2022-09-14T21:43:56.953Z,19.75
2022-09-14T21:46:24.411Z,23.52
2022-09-14T21:48:51.848Z,18.15
2022-09-14T21:51:19.126Z,21.08
2022-09-14T21:53:46.472Z,21.60
2022-09-14T21:56:13.708Z,15.90
2022-09-14T21:58:41.250Z,19.60
2022-09-14T22:01:08.829Z,13.82
2022-09-14T22:03:36.730Z,17.50
2022-09-14T22:06:04.197Z,17.05
2022-09-14T22:08:31.405Z,22.77
2022-09-14T22:10:58.665Z,19.15
2022-09-14T22:13:26.631Z,16.10
2022-09-14T22:15:55.058Z,14.88
2022-09-14T22:18:22.270Z,28.25
2022-09-14T22:20:49.497Z,15.10
2022-09-14T22:23:16.650Z,17.35
2022-09-14T22:25:43.915Z,14.05
2022-09-14T22:28:11.093Z,13.82
2022-09-14T22:30:38.380Z,17.77
2022-09-14T22:33:05.758Z,17.20
2022-09-14T22:35:33.032Z,16.88
2022-09-14T22:38:01.760Z,18.75
2022-09-14T22:40:29.045Z,27.58
2022-09-14T22:42:56.309Z,21.52
2022-09-14T22:45:23.511Z,18.42
2022-09-14T22:47:50.773Z,16.02
2022-09-14T22:50:18.052Z,14.95
2022-09-14T22:52:45.207Z,16.70
2022-09-14T22:55:13.892Z,16.10
2022-09-14T22:57:41.175Z,13.80
2022-09-14T23:00:10.131Z,17.83
2022-09-14T23:02:37.320Z,18.55
2022-09-14T23:05:04.565Z,10.88
2022-09-14T23:07:31.920Z,12.23
2022-09-14T23:09:59.870Z,15.68
2022-09-14T23:12:27.057Z,10.90
2022-09-14T23:14:54.377Z,18.05
2022-09-14T23:17:22.293Z,12.23
2022-09-14T23:19:50.022Z,13.60
2022-09-14T23:22:17.303Z,11.13
2022-09-14T23:24:44.539Z,10.88
2022-09-14T23:27:11.749Z,22.00
2022-09-14T23:29:38.978Z,11.27
2022-09-14T23:32:06.169Z,11.25
2022-09-14T23:34:33.486Z,7.28
2022-09-14T23:37:01.649Z,11.07
2022-09-14T23:39:28.890Z,18.10
2022-09-14T23:41:56.129Z,11.60
2022-09-14T23:44:23.421Z,9.50
2022-09-14T23:46:50.574Z,12.00
2022-09-14T23:49:17.822Z,9.43
2022-09-14T23:51:45.165Z,9.80
2022-09-14T23:54:12.349Z,8.43
2022-09-14T23:56:39.660Z,12.88
2022-09-14T23:59:06.876Z,8.30
